Terminal Aerodrome Forecast
Issued by NWS Quad Cities IA IL

Home | Current Version | Previous Version | Text Only | Print | Product List | Glossary On
Versions: 1 2 3 4 5 6 7 8 9 10 11 12 13 14 15 16 17
000
FTUS43 KDVN 181500 AAA
TAFDBQ
TAF AMD
KDBQ 181501Z 1815/1912 06012G20KT P6SM SCT150
     FM182200 09013G22KT P6SM BKN150
     FM190500 10010KT P6SM SCT060 BKN100=

USA.gov is the U.S. government's official web portal to all federal, state and local government web resources and services.